Time;durP1;ratioP1;P1;durP2;ratioP2;P2;SDS_P1;SDS_P2;PMS_P1;PMS_P2;Temp;Humidity;BMP_temperature;BMP_pressure;BME280_temperature;BME280_humidity;BME280_pressure;Samples;Min_cycle;Max_cycle;Signal;HPM_P1;HPM_P2
2022/08/03 00:01:50;;;;;;;;;6.67;5.00;;;;;25.01;58.95;101087.91;5080644;28;45310;-73
2022/08/03 00:04:16;;;;;;;;;5.00;5.00;;;;;25.00;58.98;101088.19;5080610;28;45290;-72
2022/08/03 00:06:41;;;;;;;;;6.67;6.33;;;;;24.96;59.21;101077.81;5079405;28;47105;-73
2022/08/03 00:09:07;;;;;;;;;6.00;6.00;;;;;25.01;59.02;101093.34;5078933;28;45407;-72
2022/08/03 00:11:33;;;;;;;;;6.00;6.00;;;;;24.97;59.33;101092.25;5080403;28;45575;-73
2022/08/03 00:13:59;;;;;;;;;6.67;6.67;;;;;25.04;59.32;101083.84;5080356;28;45322;-73
2022/08/03 00:16:25;;;;;;;;;4.67;4.67;;;;;25.02;59.36;101086.81;5087028;27;45409;-73
2022/08/03 00:18:51;;;;;;;;;6.00;6.00;;;;;25.01;59.54;101089.81;5084289;27;45503;-73
2022/08/03 00:25:03;;;;;;;;;5.00;5.00;;;;;24.95;59.62;101097.13;5080278;28;45664;-73
2022/08/03 00:27:28;;;;;;;;;6.00;6.00;;;;;24.88;59.45;101083.78;5079938;27;45452;-73
2022/08/03 00:29:53;;;;;;;;;6.67;6.00;;;;;24.88;60.19;101094.66;5075269;28;45428;-73
2022/08/03 00:32:19;;;;;;;;;6.00;6.00;;;;;24.81;60.20;101083.97;5069912;28;45394;-73
2022/08/03 00:34:44;;;;;;;;;5.00;5.00;;;;;24.84;59.76;101097.03;5079996;28;45339;-74
2022/08/03 00:37:09;;;;;;;;;5.00;5.00;;;;;24.81;60.10;101100.28;5080135;28;46647;-73
2022/08/03 00:39:34;;;;;;;;;6.00;5.33;;;;;24.82;60.39;101101.94;5079896;28;45163;-73
2022/08/03 00:42:04;;;;;;;;;8.33;8.33;;;;;24.80;60.33;101109.50;5080291;28;45295;-73
2022/08/03 00:44:30;;;;;;;;;9.33;7.33;;;;;24.77;60.06;101107.31;5080009;28;45302;-73
2022/08/03 00:46:55;;;;;;;;;7.33;7.00;;;;;24.75;60.28;101101.31;5079748;28;46056;-73
2022/08/03 00:49:20;;;;;;;;;5.67;5.67;;;;;24.75;60.74;101101.31;5086329;27;45350;-73
2022/08/03 00:51:46;;;;;;;;;7.00;6.00;;;;;24.73;60.59;101105.38;5078446;28;45484;-73
2022/08/03 00:54:13;;;;;;;;;6.67;6.67;;;;;24.68;61.49;101100.72;5084277;27;47185;-73
2022/08/03 00:56:40;;;;;;;;;8.00;7.67;;;;;24.63;61.18;101098.78;5078377;28;47261;-73
2022/08/03 00:59:06;;;;;;;;;4.00;4.00;;;;;24.58;61.18;101105.00;5078510;28;45299;-73
2022/08/03 01:01:31;;;;;;;;;7.33;7.33;;;;;24.51;61.55;101098.97;5079765;28;45446;-73
2022/08/03 01:03:56;;;;;;;;;5.67;5.67;;;;;24.43;61.55;101094.88;5079506;28;45674;-73
2022/08/03 01:06:29;;;;;;;;;6.00;6.00;;;;;24.36;61.59;101098.88;5077337;28;48826;-73
2022/08/03 01:12:58;;;;;;;;;8.00;6.67;;;;;24.26;61.77;101097.69;5079562;28;45350;-73
2022/08/03 01:15:28;;;;;;;;;6.67;6.67;;;;;24.17;62.05;101096.53;5079450;28;45584;-73
2022/08/03 01:17:58;;;;;;;;;7.67;7.00;;;;;24.07;62.33;101087.16;5090243;27;45500;-73
2022/08/03 01:20:28;;;;;;;;;4.33;4.33;;;;;24.01;62.63;101090.94;5079209;28;45288;-73
2022/08/03 01:23:28;;;;;;;;;9.33;8.00;;;;;23.92;62.98;101076.19;5079459;28;45344;-73
2022/08/03 01:26:02;;;;;;;;;7.00;6.33;;;;;23.85;63.32;101081.81;5079106;28;45311;-73
2022/08/03 01:28:46;;;;;;;;;8.00;6.67;;;;;23.77;63.43;101074.97;5079494;27;46136;-73
2022/08/03 01:31:17;;;;;;;;;6.00;6.00;;;;;23.69;63.64;101081.66;5077910;28;45577;-73
2022/08/03 01:33:49;;;;;;;;;6.33;6.33;;;;;23.60;64.06;101066.06;5079420;28;45321;-73
2022/08/03 01:36:23;;;;;;;;;6.00;6.00;;;;;23.62;64.37;101080.22;5079138;28;45384;-73
2022/08/03 01:38:54;;;;;;;;;6.67;6.67;;;;;23.57;64.06;101070.13;5077703;28;47163;-73
2022/08/03 01:41:23;;;;;;;;;4.33;4.33;;;;;23.52;63.94;101068.16;5078957;28;45385;-73
2022/08/03 01:43:50;;;;;;;;;6.33;6.33;;;;;23.52;64.50;101072.78;5079418;28;45251;-73
2022/08/03 01:46:17;;;;;;;;;5.00;5.00;;;;;23.45;64.62;101068.38;5079155;28;45479;-73
2022/08/03 01:48:46;;;;;;;;;7.00;6.33;;;;;23.39;64.92;101071.28;5078975;28;45592;-73
2022/08/03 01:51:14;;;;;;;;;6.00;6.00;;;;;23.31;64.58;101073.31;5074326;28;45393;-73
2022/08/03 01:53:42;;;;;;;;;7.67;6.33;;;;;23.26;65.06;101070.56;5077089;28;45286;-73
2022/08/03 01:56:09;;;;;;;;;6.33;6.33;;;;;23.19;65.26;101070.75;5078974;28;45477;-73
2022/08/03 01:58:36;;;;;;;;;6.00;6.00;;;;;23.17;65.96;101067.44;5078743;28;45302;-73
2022/08/03 02:01:03;;;;;;;;;6.33;6.33;;;;;23.08;66.07;101061.66;5078961;28;45404;-73
2022/08/03 02:03:32;;;;;;;;;8.33;7.00;;;;;23.04;65.86;101065.09;5078769;28;45370;-73
2022/08/03 02:05:59;;;;;;;;;6.00;6.00;;;;;23.01;65.98;101058.31;5077636;28;46253;-73
2022/08/03 02:08:27;;;;;;;;;8.67;8.33;;;;;23.01;66.34;101068.34;5077139;28;47213;-73
2022/08/03 02:10:55;;;;;;;;;7.33;7.00;;;;;22.99;66.46;101065.06;5078919;28;45269;-73
2022/08/03 02:13:23;;;;;;;;;7.00;6.33;;;;;22.95;66.74;101060.13;5078707;28;45377;-73
2022/08/03 02:15:51;;;;;;;;;5.00;5.00;;;;;22.88;66.77;101054.09;5080297;27;45585;-73
2022/08/03 02:18:18;;;;;;;;;5.67;5.67;;;;;22.81;66.55;101048.81;5088561;27;47559;-73
2022/08/03 02:20:45;;;;;;;;;7.67;6.00;;;;;22.79;66.50;101052.88;5082288;28;45496;-73
2022/08/03 02:23:10;;;;;;;;;7.00;5.00;;;;;22.79;67.16;101042.03;5082476;28;45751;-73
2022/08/03 02:25:45;;;;;;;;;4.67;4.67;;;;;22.76;66.70;101045.22;5093481;27;45851;-73
2022/08/03 02:28:23;;;;;;;;;6.00;5.33;;;;;22.66;67.12;101037.78;5082227;28;45403;-73
2022/08/03 02:30:53;;;;;;;;;8.33;6.67;;;;;22.66;67.71;101043.22;5080810;28;45419;-73
2022/08/03 02:33:23;;;;;;;;;6.33;6.33;;;;;22.63;67.56;101041.78;5096988;27;45345;-73
2022/08/03 02:35:51;;;;;;;;;8.00;6.00;;;;;22.62;67.74;101050.19;5077125;27;46643;-73
2022/08/03 02:38:19;;;;;;;;;3.67;3.67;;;;;22.61;67.48;101051.25;5079787;28;45379;-73
2022/08/03 02:40:45;;;;;;;;;5.00;5.00;;;;;22.57;67.90;101045.50;5080641;28;45400;-73
2022/08/03 02:43:16;;;;;;;;;7.33;7.33;;;;;22.52;67.80;101043.53;5081992;28;45314;-73
2022/08/03 02:45:45;;;;;;;;;5.00;5.00;;;;;22.50;67.85;101045.66;5082115;28;45707;-73
2022/08/03 02:48:16;;;;;;;;;6.33;5.33;;;;;22.45;68.25;101037.47;5092665;27;45478;-73
2022/08/03 02:50:43;;;;;;;;;5.00;5.00;;;;;22.44;68.44;101035.78;5085514;27;46202;-73
2022/08/03 02:53:11;;;;;;;;;7.00;6.00;;;;;22.40;68.36;101037.38;5081432;28;45475;-73
2022/08/03 02:55:38;;;;;;;;;8.00;7.33;;;;;22.40;68.85;101035.50;5081817;28;45292;-73
2022/08/03 02:58:05;;;;;;;;;5.33;5.33;;;;;22.42;68.36;101046.06;5081365;28;45342;-72
2022/08/03 03:00:32;;;;;;;;;3.33;3.33;;;;;22.40;69.16;101043.59;5081368;28;45361;-72
2022/08/03 03:03:00;;;;;;;;;7.00;7.00;;;;;22.38;68.63;101040.31;5081681;28;45216;-72
2022/08/03 03:05:26;;;;;;;;;4.33;4.33;;;;;22.32;68.71;101035.88;5081129;28;45504;-72
2022/08/03 03:07:53;;;;;;;;;5.00;5.00;;;;;22.30;68.87;101038.03;5081473;28;45553;-72
2022/08/03 03:10:23;;;;;;;;;6.33;5.67;;;;;22.23;69.03;101032.78;5092576;27;45484;-72
2022/08/03 03:12:55;;;;;;;;;8.00;7.00;;;;;22.22;69.56;101030.31;5081454;28;45234;-72
2022/08/03 03:15:22;;;;;;;;;6.33;6.33;;;;;22.20;69.42;101033.25;5081113;28;45264;-72
2022/08/03 03:17:50;;;;;;;;;7.00;6.00;;;;;22.15;69.72;101034.00;5092256;27;46182;-72
2022/08/03 03:20:16;;;;;;;;;8.00;8.00;;;;;22.12;69.99;101025.56;5081139;28;45285;-72
2022/08/03 03:22:43;;;;;;;;;6.00;5.00;;;;;22.07;69.67;101024.41;5081197;28;45554;-72
2022/08/03 03:25:09;;;;;;;;;4.33;4.33;;;;;22.06;69.62;101030.06;5088727;27;46041;-72
2022/08/03 03:27:35;;;;;;;;;6.33;6.33;;;;;22.02;69.86;101032.44;5080863;28;45436;-72
2022/08/03 03:30:02;;;;;;;;;6.00;5.00;;;;;22.00;69.80;101029.13;5075796;27;45957;-72
2022/08/03 03:32:28;;;;;;;;;6.67;6.67;;;;;22.02;70.04;101037.84;5073446;28;45165;-72
2022/08/03 03:34:55;;;;;;;;;6.33;5.67;;;;;22.02;70.73;101037.84;5080557;28;45240;-72
2022/08/03 03:37:20;;;;;;;;;5.00;4.33;;;;;21.96;70.31;101032.59;5081154;28;46186;-72
2022/08/03 03:39:46;;;;;;;;;5.00;5.00;;;;;21.91;70.25;101028.72;5080675;28;45455;-72
2022/08/03 03:42:11;;;;;;;;;5.00;5.00;;;;;21.90;70.24;101028.97;5084745;27;45319;-72
2022/08/03 03:44:37;;;;;;;;;5.67;5.33;;;;;21.91;70.85;101027.94;5080808;28;45306;-72
2022/08/03 03:47:02;;;;;;;;;7.67;5.67;;;;;21.87;70.66;101024.88;5080849;28;45448;-72
2022/08/03 03:49:28;;;;;;;;;5.00;5.00;;;;;21.80;71.06;101016.09;5080660;28;45362;-72
2022/08/03 03:51:54;;;;;;;;;5.00;4.00;;;;;21.86;71.10;101027.81;5094700;27;45764;-72
2022/08/03 03:54:20;;;;;;;;;4.00;4.00;;;;;21.80;70.77;101018.81;5079441;28;46227;-72
2022/08/03 03:56:46;;;;;;;;;5.00;5.00;;;;;21.89;70.17;101032.75;5092350;27;47829;-72
2022/08/03 03:59:11;;;;;;;;;5.00;5.00;;;;;21.84;70.80;101022.66;5080823;28;45305;-72
2022/08/03 04:01:38;;;;;;;;;4.00;4.00;;;;;21.88;70.19;101020.28;5080746;28;45284;-72
2022/08/03 04:12:23;;;;;;;;;5.33;5.00;;;;;21.89;70.39;101017.34;5080286;28;45448;-74
2022/08/03 04:14:51;;;;;;;;;6.33;3.67;;;;;21.86;70.66;101009.72;5080424;28;45507;-74
2022/08/03 04:17:18;;;;;;;;;7.00;5.00;;;;;21.87;70.52;101018.63;5093107;27;47312;-74
2022/08/03 04:19:51;;;;;;;;;4.00;4.00;;;;;21.82;70.65;101030.22;5080288;28;45289;-74
2022/08/03 04:22:20;;;;;;;;;4.00;4.00;;;;;21.76;70.52;101029.28;5080278;28;45408;-74
2022/08/03 04:24:54;;;;;;;;;3.67;3.67;;;;;21.75;70.64;101029.47;5084460;27;46091;-74
2022/08/03 04:27:22;;;;;;;;;4.00;4.00;;;;;21.74;70.34;101025.97;5078479;28;47336;-74
2022/08/03 04:29:51;;;;;;;;;4.00;2.00;;;;;21.76;70.60;101031.97;5080211;28;45502;-74
2022/08/03 04:32:19;;;;;;;;;4.33;4.33;;;;;21.74;70.91;101027.84;5080461;28;45420;-74
2022/08/03 04:34:44;;;;;;;;;4.00;4.00;;;;;21.74;70.88;101028.69;5079887;28;45330;-74
2022/08/03 04:37:13;;;;;;;;;3.33;3.33;;;;;21.72;70.81;101019.97;5084197;27;47246;-74
2022/08/03 04:39:41;;;;;;;;;5.00;5.00;;;;;21.71;70.57;101023.75;5079915;28;45466;-74
2022/08/03 04:42:10;;;;;;;;;4.00;4.00;;;;;21.73;70.63;101032.44;5079108;28;45369;-74
2022/08/03 04:44:41;;;;;;;;;5.00;5.00;;;;;21.70;71.31;101032.94;5080112;28;45339;-74
2022/08/03 04:47:07;;;;;;;;;4.00;3.67;;;;;21.69;71.16;101034.81;5082146;27;47093;-74
2022/08/03 04:49:36;;;;;;;;;5.33;5.33;;;;;21.72;70.70;101035.38;5079806;28;45274;-74
2022/08/03 04:52:02;;;;;;;;;5.00;4.33;;;;;21.73;70.91;101034.34;5079774;28;45426;-74
2022/08/03 04:54:27;;;;;;;;;5.00;5.00;;;;;21.69;71.57;101026.69;5079863;28;45421;-74
2022/08/03 04:56:52;;;;;;;;;4.67;4.00;;;;;21.69;71.74;101024.00;5079369;28;49782;-74
2022/08/03 04:59:18;;;;;;;;;5.00;5.00;;;;;21.71;71.52;101037.28;5079848;28;45335;-74
2022/08/03 05:01:43;;;;;;;;;4.67;4.00;;;;;21.72;71.44;101029.97;5079714;28;45373;-74
2022/08/03 05:04:09;;;;;;;;;4.67;3.67;;;;;21.72;71.61;101032.66;5079577;28;45421;-74
2022/08/03 05:06:34;;;;;;;;;4.67;4.00;;;;;21.76;71.48;101028.47;5079597;28;45368;-74
2022/08/03 05:09:00;;;;;;;;;4.00;4.00;;;;;21.78;71.69;101029.03;5080592;27;45848;-73
2022/08/03 05:11:25;;;;;;;;;4.00;4.00;;;;;21.80;71.35;101024.22;5079493;28;45441;-73
2022/08/03 05:13:50;;;;;;;;;5.00;5.00;;;;;21.82;71.74;101024.81;5094633;27;46404;-73
2022/08/03 05:16:16;;;;;;;;;4.00;4.00;;;;;21.84;71.69;101022.66;5085173;27;45360;-73
2022/08/03 05:18:42;;;;;;;;;5.00;5.00;;;;;21.86;71.44;101039.47;5083329;27;45339;-74
2022/08/03 05:21:09;;;;;;;;;5.33;5.33;;;;;21.85;71.40;101039.72;5079545;28;45548;-74
2022/08/03 05:23:35;;;;;;;;;6.33;6.33;;;;;21.86;71.47;101041.34;5079354;28;45239;-74
2022/08/03 05:26:00;;;;;;;;;6.00;4.67;;;;;21.86;72.25;101035.94;5077768;28;48149;-74
2022/08/03 05:28:25;;;;;;;;;6.33;6.33;;;;;21.82;71.76;101032.91;5079479;28;45524;-74
2022/08/03 05:30:51;;;;;;;;;6.00;5.00;;;;;21.84;72.11;101041.59;5078088;28;45359;-74
2022/08/03 05:33:16;;;;;;;;;6.00;5.67;;;;;21.85;71.90;101031.59;5079043;28;45276;-74
2022/08/03 05:35:41;;;;;;;;;6.67;6.00;;;;;21.87;72.26;101049.22;5077967;28;48385;-72
2022/08/03 05:38:07;;;;;;;;;7.00;6.33;;;;;21.86;72.58;101041.34;5091429;27;45292;-74
2022/08/03 05:40:32;;;;;;;;;10.00;10.00;;;;;21.86;72.33;101038.63;5079588;28;45394;-76
2022/08/03 05:42:57;;;;;;;;;8.00;7.33;;;;;21.94;72.49;101043.66;5085943;27;45975;-75
2022/08/03 05:45:24;;;;;;;;;6.33;5.33;;;;;21.96;72.31;101055.06;5081406;27;45780;-76
2022/08/03 05:47:50;;;;;;;;;6.33;6.00;;;;;21.99;72.17;101053.75;5080166;28;45483;-77
2022/08/03 05:50:16;;;;;;;;;4.00;4.00;;;;;22.05;72.78;101048.19;5064624;28;45374;-77
2022/08/03 05:52:42;;;;;;;;;5.00;5.00;;;;;22.08;72.20;101044.16;5075468;27;46656;-77
2022/08/03 05:55:09;;;;;;;;;7.33;6.67;;;;;22.17;72.31;101058.09;5060867;28;47566;-77
2022/08/03 05:57:35;;;;;;;;;6.00;6.00;;;;;22.24;72.22;101047.94;5070912;28;45216;-76
2022/08/03 06:00:07;;;;;;;;;5.67;5.67;;;;;22.30;71.47;101048.88;5089614;27;45295;-75
2022/08/03 06:02:32;;;;;;;;;7.00;6.67;;;;;22.33;71.75;101038.34;5079163;28;47152;-76
2022/08/03 06:04:58;;;;;;;;;7.67;7.33;;;;;22.44;71.71;101050.16;5080839;28;48098;-76
2022/08/03 06:07:23;;;;;;;;;8.00;6.00;;;;;22.54;71.20;101054.91;5082115;27;45227;-76
2022/08/03 06:09:48;;;;;;;;;8.00;6.33;;;;;22.62;71.39;101044.78;5080699;28;45850;-75
2022/08/03 06:12:14;;;;;;;;;6.00;6.00;;;;;22.65;71.04;101049.66;5070325;28;45595;-77
2022/08/03 06:14:40;;;;;;;;;7.33;6.00;;;;;22.71;70.55;101051.38;5061936;28;47006;-75
2022/08/03 06:17:05;;;;;;;;;8.33;7.00;;;;;22.76;70.56;101043.34;5062241;27;45546;-77
2022/08/03 06:19:31;;;;;;;;;6.00;6.00;;;;;22.79;70.83;101048.28;5060281;28;45457;-75
2022/08/03 06:21:57;;;;;;;;;6.00;6.00;;;;;22.89;70.40;101050.28;5061967;28;46076;-76
2022/08/03 06:24:22;;;;;;;;;5.33;5.33;;;;;22.92;70.29;101049.78;5070998;28;46346;-76
2022/08/03 06:26:47;;;;;;;;;6.67;5.33;;;;;23.01;70.02;101057.50;5072671;28;45516;-75
2022/08/03 06:29:13;;;;;;;;;6.33;6.33;;;;;23.05;70.04;101051.31;5081097;28;45600;-76
2022/08/03 06:31:38;;;;;;;;;7.67;6.00;;;;;23.11;69.65;101051.38;5083033;27;46043;-76
2022/08/03 06:34:04;;;;;;;;;9.00;6.67;;;;;23.18;69.81;101054.72;5081846;28;46005;-76
2022/08/03 06:36:30;;;;;;;;;6.67;5.67;;;;;23.23;69.81;101057.50;5082092;28;45338;-77
2022/08/03 06:38:58;;;;;;;;;9.00;7.00;;;;;23.34;69.62;101058.44;5086367;27;45352;-76
2022/08/03 06:41:26;;;;;;;;;6.67;6.67;;;;;23.33;69.37;101044.09;5081714;28;45232;-76
2022/08/03 06:43:53;;;;;;;;;9.00;7.67;;;;;23.48;68.66;101058.91;5081934;28;45657;-76
2022/08/03 06:46:18;;;;;;;;;6.00;6.00;;;;;23.55;69.38;101061.41;5064110;28;45879;-79
2022/08/03 06:48:44;;;;;;;;;7.00;5.00;;;;;23.63;69.47;101058.25;5062563;28;45496;-77
2022/08/03 06:51:09;;;;;;;;;6.00;6.00;;;;;23.67;69.21;101048.53;5061804;28;45461;-77
2022/08/03 06:53:35;;;;;;;;;6.67;6.00;;;;;23.72;69.12;101050.47;5070925;28;45410;-77
2022/08/03 06:56:00;;;;;;;;;7.00;7.00;;;;;23.81;69.25;101050.84;5071009;27;45374;-77
2022/08/03 06:58:25;;;;;;;;;7.00;7.00;;;;;23.87;68.64;101049.81;5067865;28;45496;-77
2022/08/03 07:00:52;;;;;;;;;7.33;5.67;;;;;23.98;68.74;101063.47;5068755;27;45486;-76
2022/08/03 07:03:17;;;;;;;;;9.00;6.67;;;;;24.03;68.26;101060.81;5067505;28;46548;-76
2022/08/03 07:05:45;;;;;;;;;8.00;7.00;;;;;24.10;68.45;101058.72;5086919;27;47766;-76
2022/08/03 07:08:11;;;;;;;;;7.00;7.00;;;;;24.23;67.50;101065.63;5081048;28;45295;-75
2022/08/03 07:10:36;;;;;;;;;8.00;8.00;;;;;24.31;67.13;101067.06;5081069;28;45858;-76
2022/08/03 07:13:02;;;;;;;;;6.33;6.33;;;;;24.40;66.97;101062.78;5072771;28;46161;-76
2022/08/03 07:15:27;;;;;;;;;6.33;5.33;;;;;24.52;67.53;101061.78;5062087;28;45503;-76
2022/08/03 07:17:53;;;;;;;;;10.00;8.00;;;;;24.54;66.95;101063.13;5069921;27;45911;-76
2022/08/03 07:20:18;;;;;;;;;6.00;6.00;;;;;24.63;66.45;101059.94;5061886;28;45650;-76
2022/08/03 07:22:44;;;;;;;;;9.00;8.33;;;;;24.73;65.93;101064.63;5071428;28;45419;-77
2022/08/03 07:25:09;;;;;;;;;8.00;8.00;;;;;24.84;65.77;101066.31;5069998;28;45453;-77
2022/08/03 07:27:35;;;;;;;;;5.67;5.67;;;;;24.89;65.38;101060.13;5074081;28;45300;-75
2022/08/03 07:30:01;;;;;;;;;7.33;7.33;;;;;25.00;65.08;101064.53;5072066;27;46558;-74
2022/08/03 07:32:30;;;;;;;;;9.00;8.67;;;;;25.08;64.89;101061.31;5070236;28;45380;-78
2022/08/03 07:34:55;;;;;;;;;11.33;10.00;;;;;25.19;64.42;101066.78;5080447;28;45334;-77
2022/08/03 07:37:21;;;;;;;;;9.00;7.00;;;;;25.23;63.97;101061.66;5070743;28;45375;-78
2022/08/03 07:39:46;;;;;;;;;8.67;8.67;;;;;25.30;63.25;101054.88;5068447;28;46319;-78
2022/08/03 07:42:11;;;;;;;;;8.00;8.00;;;;;25.42;63.68;101059.25;5080271;28;45373;-78
2022/08/03 07:44:38;;;;;;;;;6.00;5.33;;;;;25.49;63.39;101059.03;5080171;28;45343;-78
2022/08/03 07:47:03;;;;;;;;;10.00;8.67;;;;;25.58;62.72;101055.50;5068007;28;45386;-78
2022/08/03 07:49:29;;;;;;;;;7.33;6.00;;;;;25.67;62.74;101052.25;5073493;28;46024;-78
2022/08/03 07:54:38;;;;;;;;;7.33;7.33;;;;;25.90;62.75;101063.75;5080288;28;45617;-78
2022/08/03 07:57:04;;;;;;;;;6.67;6.67;;;;;25.94;62.23;101057.47;5080814;28;45244;-78
2022/08/03 07:59:29;;;;;;;;;9.00;9.00;;;;;26.03;61.85;101062.38;5080547;28;45362;-78
2022/08/03 08:01:55;;;;;;;;;7.00;7.00;;;;;26.08;60.63;101057.78;5080762;28;45415;-78
2022/08/03 08:04:21;;;;;;;;;6.00;5.67;;;;;26.21;61.04;101067.28;5080413;28;45338;-79
2022/08/03 08:06:46;;;;;;;;;7.33;7.33;;;;;26.29;60.73;101057.78;5076312;28;45315;-79
2022/08/03 08:09:12;;;;;;;;;8.00;8.00;;;;;26.37;60.16;101061.06;5073234;28;45493;-78
2022/08/03 08:11:37;;;;;;;;;7.00;6.67;;;;;26.44;59.96;101067.88;5072113;28;45606;-78
2022/08/03 08:14:04;;;;;;;;;6.00;6.00;;;;;26.51;58.84;101062.13;5061742;28;45484;-77
2022/08/03 08:16:29;;;;;;;;;6.33;6.33;;;;;26.61;58.93;101066.75;5066022;27;45449;-77
2022/08/03 08:18:55;;;;;;;;;6.00;6.00;;;;;26.67;59.07;101051.19;5071414;28;45336;-77
2022/08/03 08:21:20;;;;;;;;;6.00;6.00;;;;;26.79;58.75;101059.88;5080428;28;46596;-79
2022/08/03 08:23:46;;;;;;;;;6.67;6.00;;;;;26.88;59.01;101057.41;5080638;28;45343;-76
2022/08/03 08:26:12;;;;;;;;;7.00;7.00;;;;;26.99;58.45;101063.66;5078353;28;45377;-76
2022/08/03 08:28:37;;;;;;;;;5.33;5.33;;;;;27.09;57.14;101046.47;5080332;27;47922;-77
2022/08/03 08:31:03;;;;;;;;;4.33;4.33;;;;;27.21;58.11;101060.56;5080058;28;46558;-75
2022/08/03 08:33:29;;;;;;;;;5.67;5.00;;;;;27.28;56.59;101056.72;5082171;27;45307;-76
2022/08/03 08:35:55;;;;;;;;;5.67;5.67;;;;;27.36;56.35;101061.63;5074353;28;45545;-73
2022/08/03 08:38:21;;;;;;;;;8.00;5.33;;;;;27.40;56.47;101040.03;5068589;28;45338;-73
2022/08/03 08:40:48;;;;;;;;;7.67;6.67;;;;;27.57;56.29;101062.28;5079701;28;45288;-74
2022/08/03 08:43:14;;;;;;;;;5.00;5.00;;;;;27.66;55.21;101054.38;5080097;28;45439;-74
2022/08/03 08:45:40;;;;;;;;;5.00;5.00;;;;;27.75;55.24;101045.56;5078690;28;45300;-75
2022/08/03 08:48:06;;;;;;;;;7.33;6.67;;;;;27.83;55.38;101048.50;5074790;28;45415;-74
2022/08/03 08:50:32;;;;;;;;;8.00;7.33;;;;;27.91;54.55;101055.28;5069746;28;47347;-74
2022/08/03 08:53:02;;;;;;;;;5.00;5.00;;;;;27.94;54.38;101045.69;5075333;28;45469;-74
2022/08/03 08:55:28;;;;;;;;;6.00;6.00;;;;;27.99;54.14;101040.22;5058080;28;45493;-74
2022/08/03 08:58:04;;;;;;;;;5.00;4.00;;;;;28.06;53.55;101043.41;5079251;28;45481;-75
2022/08/03 09:00:30;;;;;;;;;5.67;5.67;;;;;28.14;54.14;101044.72;5078878;27;45506;-75
2022/08/03 09:02:55;;;;;;;;;4.33;4.33;;;;;28.19;53.31;101036.47;5077934;27;45794;-75
2022/08/03 09:05:21;;;;;;;;;6.00;6.00;;;;;28.29;52.71;101041.06;5078995;27;45324;-73
2022/08/03 09:07:47;;;;;;;;;7.00;7.00;;;;;28.36;52.27;101043.44;5078977;28;45318;-75
2022/08/03 09:10:18;;;;;;;;;5.67;5.67;;;;;28.44;52.46;101045.56;5078736;27;46076;-75
2022/08/03 09:12:46;;;;;;;;;6.67;6.00;;;;;28.53;52.25;101039.47;5078853;28;45752;-75
2022/08/03 09:15:26;;;;;;;;;3.67;3.67;;;;;28.63;52.09;101036.63;5077924;28;45206;-75
2022/08/03 09:17:53;;;;;;;;;4.67;4.33;;;;;28.74;52.46;101040.06;5093849;27;46501;-75
2022/08/03 09:20:21;;;;;;;;;4.00;4.00;;;;;28.77;51.30;101034.00;5075856;28;45515;-76
2022/08/03 09:22:58;;;;;;;;;4.00;4.00;;;;;28.89;50.35;101040.97;5081731;27;45441;-77
2022/08/03 09:25:29;;;;;;;;;5.00;5.00;;;;;28.91;50.09;101039.56;5066343;27;45396;-77
2022/08/03 09:28:04;;;;;;;;;4.67;4.67;;;;;29.03;50.10;101041.91;5063664;28;46998;-75
2022/08/03 09:30:29;;;;;;;;;5.00;5.00;;;;;29.13;50.15;101040.16;5069908;28;45497;-75
2022/08/03 09:33:03;;;;;;;;;3.67;3.67;;;;;29.16;49.24;101023.16;5069456;28;45600;-76
2022/08/03 09:35:29;;;;;;;;;6.00;5.00;;;;;29.22;48.92;101027.47;5075836;27;45485;-77
2022/08/03 09:38:26;;;;;;;;;4.33;4.33;;;;;29.31;48.40;101030.34;5078961;28;45629;-76
2022/08/03 09:40:53;;;;;;;;;5.00;5.00;;;;;29.39;47.80;101028.88;5070210;28;45398;-76
2022/08/03 09:43:19;;;;;;;;;4.00;4.00;;;;;29.46;47.08;101030.13;5072787;28;45401;-74
2022/08/03 09:45:45;;;;;;;;;4.00;4.00;;;;;29.50;47.07;101024.88;5078898;28;45402;-74
2022/08/03 09:48:21;;;;;;;;;3.33;3.33;;;;;29.61;45.29;101026.38;5076848;28;45326;-74
2022/08/03 09:51:00;;;;;;;;;5.33;5.33;;;;;29.72;45.80;101026.22;5071989;28;47051;-74
2022/08/03 09:53:26;;;;;;;;;3.67;3.67;;;;;29.82;45.87;101030.72;5057978;28;45338;-75
2022/08/03 09:55:57;;;;;;;;;5.00;4.00;;;;;29.88;45.08;101013.09;5057051;28;45606;-74
2022/08/03 09:58:24;;;;;;;;;5.00;4.67;;;;;30.01;45.81;101016.19;5073596;28;45429;-74
2022/08/03 10:01:04;;;;;;;;;3.33;3.33;;;;;30.11;45.74;101007.78;5078437;27;45275;-74
2022/08/03 10:03:36;;;;;;;;;5.00;5.00;;;;;30.29;44.20;101019.00;5067649;28;45463;-72
2022/08/03 10:06:21;;;;;;;;;4.67;4.67;;;;;30.39;44.61;101002.34;5062422;28;45489;-74
2022/08/03 10:08:46;;;;;;;;;3.00;3.00;;;;;30.53;45.10;101007.03;5069159;28;45695;-73
2022/08/03 10:11:28;;;;;;;;;5.00;5.00;;;;;30.64;43.83;101010.38;5089955;27;47404;-74
2022/08/03 10:13:53;;;;;;;;;5.00;5.00;;;;;30.72;43.47;101007.75;5072343;28;45334;-73
2022/08/03 10:16:19;;;;;;;;;5.33;4.67;;;;;30.81;42.32;100999.63;5077037;27;45294;-74
2022/08/03 10:18:44;;;;;;;;;3.67;3.00;;;;;30.97;43.42;101007.53;5076350;28;45457;-73
2022/08/03 10:21:15;;;;;;;;;4.67;4.67;;;;;31.07;42.37;100999.09;5077921;28;57099;-74
2022/08/03 10:23:41;;;;;;;;;3.67;3.67;;;;;31.21;43.09;100993.56;5078507;28;45385;-73
2022/08/03 10:26:07;;;;;;;;;5.33;5.00;;;;;31.39;42.60;100995.69;5078478;28;45294;-73
2022/08/03 10:28:36;;;;;;;;;3.67;3.67;;;;;31.57;41.58;100996.63;5078657;27;45445;-73
2022/08/03 10:31:06;;;;;;;;;3.67;3.67;;;;;31.71;41.63;100989.13;5078489;28;46522;-74
2022/08/03 10:33:36;;;;;;;;;3.33;3.00;;;;;31.93;41.21;100992.97;5077243;28;45386;-72
2022/08/03 10:36:02;;;;;;;;;3.33;3.33;;;;;32.07;40.47;100981.09;5071501;28;45268;-73
2022/08/03 10:38:36;;;;;;;;;2.00;2.00;;;;;32.28;40.51;100978.59;5062633;28;45452;-73
2022/08/03 10:41:03;;;;;;;;;3.00;3.00;;;;;32.48;39.29;100993.75;5079354;28;45425;-72
2022/08/03 10:43:44;;;;;;;;;5.00;3.67;;;;;32.65;39.06;100980.38;5081134;28;45309;-74
2022/08/03 10:46:09;;;;;;;;;3.00;3.00;;;;;32.79;38.99;100981.03;5075630;27;45468;-73
2022/08/03 10:48:36;;;;;;;;;4.00;4.00;;;;;32.96;37.33;100973.94;5072219;28;47992;-72
2022/08/03 10:51:02;;;;;;;;;2.33;2.33;;;;;33.15;38.02;100981.91;5093073;27;47520;-74
2022/08/03 10:53:36;;;;;;;;;3.00;3.00;;;;;33.36;37.81;100973.00;5070812;28;45383;-75
2022/08/03 10:58:48;;;;;;;;;4.00;3.33;;;;;33.71;37.28;100967.47;5077627;28;45363;-76
2022/08/03 11:01:14;;;;;;;;;2.33;2.33;;;;;33.88;37.33;100963.84;5079330;28;46726;-76
2022/08/03 11:03:52;;;;;;;;;3.00;3.00;;;;;34.15;36.98;100960.22;5075946;28;45878;-74
2022/08/03 11:06:25;;;;;;;;;2.67;2.67;;;;;34.20;35.28;100949.81;5080185;28;45273;-74
2022/08/03 11:09:09;;;;;;;;;2.33;2.33;;;;;34.45;35.38;100958.31;5079922;27;45355;-73
2022/08/03 11:11:35;;;;;;;;;5.00;3.00;;;;;34.64;35.92;100962.56;5081411;28;46760;-73
2022/08/03 11:14:07;;;;;;;;;3.33;3.33;;;;;34.80;34.14;100953.72;5075422;28;45347;-73
2022/08/03 11:16:40;;;;;;;;;3.00;3.00;;;;;34.98;35.50;100948.88;5080584;27;45425;-74
2022/08/03 11:19:08;;;;;;;;;2.00;2.00;;;;;35.07;35.06;100944.06;5078301;27;45257;-76
2022/08/03 11:21:49;;;;;;;;;4.00;4.00;;;;;35.26;34.59;100957.41;5079744;28;47270;-76
2022/08/03 11:24:39;;;;;;;;;3.67;3.00;;;;;35.45;34.38;100944.25;5084524;27;46083;-77
2022/08/03 11:27:17;;;;;;;;;5.00;3.67;;;;;35.60;33.36;100943.59;5080237;28;45738;-76
2022/08/03 11:30:05;;;;;;;;;1.00;1.00;;;;;35.71;32.95;100943.19;5095971;27;47148;-76
2022/08/03 11:32:36;;;;;;;;;1.33;1.33;;;;;35.79;32.87;100942.25;5082134;28;46066;-76
2022/08/03 11:35:12;;;;;;;;;3.67;2.67;;;;;35.93;32.88;100928.13;5082498;28;45391;-76
2022/08/03 11:38:07;;;;;;;;;2.00;2.00;;;;;36.02;32.36;100930.78;5082729;28;45358;-77
2022/08/03 11:40:49;;;;;;;;;2.00;2.00;;;;;36.12;31.78;100935.84;5077036;28;47221;-76
2022/08/03 11:43:29;;;;;;;;;3.00;3.00;;;;;36.22;31.61;100933.81;5077164;28;45380;-77
2022/08/03 11:46:01;;;;;;;;;2.00;2.00;;;;;36.29;31.71;100925.72;5084864;28;45259;-78
2022/08/03 11:48:33;;;;;;;;;2.00;2.00;;;;;36.47;31.71;100920.75;5086459;28;45381;-77
2022/08/03 11:51:00;;;;;;;;;2.33;2.33;;;;;36.63;31.00;100929.13;5085629;28;45335;-77